Mitchell, South Dakota
Current Conditions -  °F | °C
As of 4:53 PM on Saturday 25 Oct 2014 (Local Time) from KMHE Reporting Station
Clear Clear  
Wind Chill: 69°   Ceiling: Unl
Heat Index: 69°   Visibility: 10mi
Dew Point: 32°   Wind: 5mph
Humidity: 25%   Direction: 60°ENE
Pressure: 30.08"   Gusts: NA
Location:  43.7°N, 98.03°W
Report Text: KMHE 252153Z AUTO 06004KT 10SM CLR 21/00 A3008 RMK AO2 SLP187 T02060000 $
Loading
Personal Weather Stations






























Interactive Weather Map
Tropical Storm Tracking
New forecast layout! Learn more

10-Day Weather Forecast

Advertisements
Track Severe Weather on mobile